Terminal Aerodrome Forecast
Issued by NWS Grand Forks, ND

Home | Current Version | Previous Version | Text Only | Print | Product List | Glossary On
Versions: 1 2 3 4 5 6 7 8 9 10 11 12 13 14 15
033
FTUS43 KFGF 272327
TAFFAR
TAF
KFAR 272327Z 2800/2824 17016KT P6SM SCT250
     FM280400 16011KT P6SM VCTS BKN080CB
      TEMPO 2805/2807 4SM -TSRA OVC035CB
     FM281100 17008KT P6SM OVC025
     FM281400 25007KT P6SM OVC025
     FM281700 30012KT P6SM BKN035=

USA.gov is the U.S. government's official web portal to all federal, state and local government web resources and services.